createdAt,value
2018-12-29T00:00:30.132Z,98210.84
2018-12-29T00:03:26.719Z,98212.34
2018-12-29T00:06:22.395Z,98213.08
2018-12-29T00:09:20.764Z,98215.34
2018-12-29T00:12:15.569Z,98216.11
2018-12-29T00:15:12.057Z,98216.84
2018-12-29T00:18:08.385Z,98217.61
2018-12-29T00:21:05.252Z,98217.35
2018-12-29T00:24:02.156Z,98221.38
2018-12-29T00:26:59.098Z,98217.89
2018-12-29T00:29:57.327Z,98220.27
2018-12-29T00:32:53.800Z,98221.37
2018-12-29T00:35:51.773Z,98226.85
2018-12-29T00:38:50.464Z,98223.86
2018-12-29T00:41:48.028Z,98219.39
2018-12-29T00:44:43.247Z,98215.15
2018-12-29T00:47:40.688Z,98227.58
2018-12-29T00:50:38.148Z,98238.30
2018-12-29T00:53:34.918Z,98248.02
2018-12-29T00:56:31.238Z,98247.77
2018-12-29T00:59:28.043Z,98251.74
2018-12-29T01:02:24.722Z,98254.77
2018-12-29T01:05:19.940Z,98253.02
2018-12-29T01:08:16.579Z,98258.24
2018-12-29T01:11:14.344Z,98258.72
2018-12-29T01:14:10.125Z,98259.94
2018-12-29T01:17:06.696Z,98254.46
2018-12-29T01:20:02.250Z,98255.94
2018-12-29T01:22:58.740Z,98254.66
2018-12-29T01:25:55.595Z,98255.91
2018-12-29T01:28:51.608Z,98260.34
2018-12-29T01:31:47.554Z,98262.10
2018-12-29T01:34:49.721Z,98266.80
2018-12-29T01:37:45.749Z,98264.53
2018-12-29T01:40:42.294Z,98272.48
2018-12-29T01:43:40.124Z,98273.17
2018-12-29T01:46:36.729Z,98273.48
2018-12-29T01:49:33.649Z,98274.45
2018-12-29T01:52:30.187Z,98284.75
2018-12-29T01:55:25.905Z,98286.47
2018-12-29T01:58:22.446Z,98288.48
2018-12-29T02:01:19.088Z,98295.95
2018-12-29T02:04:15.015Z,98295.48
2018-12-29T02:07:11.570Z,98292.00
2018-12-29T02:10:08.532Z,98290.86
2018-12-29T02:13:05.309Z,98278.52
2018-12-29T02:16:00.996Z,98274.02
2018-12-29T02:18:57.301Z,98268.83
2018-12-29T02:21:53.893Z,98272.55
2018-12-29T02:24:50.071Z,98278.30
2018-12-29T02:27:45.261Z,98289.51
2018-12-29T02:30:43.029Z,98287.78
2018-12-29T02:33:39.964Z,98287.31
2018-12-29T02:36:36.741Z,98289.03
2018-12-29T02:39:33.283Z,98275.30
2018-12-29T02:42:30.033Z,98272.30
2018-12-29T02:45:33.224Z,98274.79
2018-12-29T02:48:22.315Z,98281.48
2018-12-29T02:51:18.620Z,98280.91
2018-12-29T02:54:16.051Z,98288.00
2018-12-29T02:57:11.977Z,98298.70
2018-12-29T03:00:09.452Z,98297.70
2018-12-29T03:03:04.921Z,98290.24
2018-12-29T03:06:01.502Z,98291.23
2018-12-29T03:08:57.966Z,98288.73
2018-12-29T03:11:54.501Z,98286.62
2018-12-29T03:14:51.123Z,98276.30
2018-12-29T03:17:45.979Z,98261.86
2018-12-29T03:20:42.480Z,98265.82
2018-12-29T03:23:39.367Z,98268.42
2018-12-29T03:26:34.950Z,98270.69
2018-12-29T03:29:31.860Z,98261.13
2018-12-29T03:32:29.701Z,98253.70
2018-12-29T03:35:27.310Z,98249.97
2018-12-29T03:38:23.182Z,98246.72
2018-12-29T03:41:20.234Z,98239.25
2018-12-29T03:44:16.265Z,98244.70
2018-12-29T03:47:11.955Z,98239.50
2018-12-29T03:50:08.842Z,98250.27
2018-12-29T03:53:05.650Z,98264.47
2018-12-29T03:56:03.376Z,98261.21
2018-12-29T03:58:58.867Z,98250.74
2018-12-29T04:01:56.237Z,98253.27
2018-12-29T04:04:53.046Z,98244.59
2018-12-29T04:07:48.691Z,98242.84
2018-12-29T04:10:45.358Z,98250.52
2018-12-29T04:13:40.839Z,98259.74
2018-12-29T04:16:37.398Z,98256.27
2018-12-29T04:19:33.043Z,98259.52
2018-12-29T04:22:31.852Z,98257.03
2018-12-29T04:25:28.561Z,98257.32
2018-12-29T04:28:24.070Z,98255.09
2018-12-29T04:31:19.684Z,98260.06
2018-12-29T04:34:16.206Z,98250.37
2018-12-29T04:37:13.057Z,98253.59
2018-12-29T04:40:08.892Z,98261.67
2018-12-29T04:43:06.700Z,98257.69
2018-12-29T04:46:05.356Z,98248.10
2018-12-29T04:48:59.031Z,98262.05
2018-12-29T04:51:55.556Z,98268.03
2018-12-29T04:54:52.402Z,98283.22
2018-12-29T04:57:49.051Z,98288.68
2018-12-29T05:00:44.391Z,98298.75
2018-12-29T05:03:42.228Z,98303.49
2018-12-29T05:06:38.766Z,98299.14
2018-12-29T05:09:33.916Z,98307.33
2018-12-29T05:12:32.924Z,98308.33
2018-12-29T05:15:28.418Z,98317.30
2018-12-29T05:18:24.950Z,98309.31
2018-12-29T05:21:20.949Z,98321.53
2018-12-29T05:24:18.112Z,98309.82
2018-12-29T05:27:14.646Z,98310.34
2018-12-29T05:30:10.868Z,98298.63
2018-12-29T05:33:08.436Z,98302.84
2018-12-29T05:36:05.253Z,98288.91
2018-12-29T05:39:01.823Z,98294.13
2018-12-29T05:41:57.663Z,98307.23
2018-12-29T05:44:55.728Z,98298.63
2018-12-29T05:47:52.326Z,98317.28
2018-12-29T05:50:47.586Z,98339.94
2018-12-29T05:53:45.434Z,98333.97
2018-12-29T05:56:42.250Z,98340.45
2018-12-29T05:59:39.019Z,98342.16
2018-12-29T06:02:35.709Z,98331.87
2018-12-29T06:05:32.276Z,98329.02
2018-12-29T06:08:28.683Z,98316.58
2018-12-29T06:11:24.533Z,98336.22
2018-12-29T06:14:22.113Z,98331.76
2018-12-29T06:17:16.908Z,98315.08
2018-12-29T06:20:14.711Z,98325.03
2018-12-29T06:23:10.207Z,98329.75
2018-12-29T06:26:07.010Z,98328.03
2018-12-29T06:29:03.574Z,98335.02
2018-12-29T06:31:59.296Z,98333.53
2018-12-29T06:34:57.990Z,98330.00
2018-12-29T06:37:53.519Z,98328.99
2018-12-29T06:40:49.244Z,98321.76
2018-12-29T06:43:45.906Z,98332.47
2018-12-29T06:46:42.599Z,98336.46
2018-12-29T06:49:39.055Z,98348.39
2018-12-29T06:52:34.556Z,98340.42
2018-12-29T06:55:32.120Z,98339.69
2018-12-29T06:58:28.811Z,98344.91
2018-12-29T07:01:25.529Z,98357.81
2018-12-29T07:04:23.434Z,98364.30
2018-12-29T07:07:18.508Z,98367.03
2018-12-29T07:10:15.014Z,98353.11
2018-12-29T07:13:10.764Z,98360.58
2018-12-29T07:16:08.487Z,98350.62
2018-12-29T07:19:04.269Z,98349.78
2018-12-29T07:22:03.069Z,98352.66
2018-12-29T07:25:00.755Z,98350.90
2018-12-29T07:27:56.356Z,98359.36
2018-12-29T07:30:52.868Z,98360.46
2018-12-29T07:33:49.572Z,98368.04
2018-12-29T07:36:47.335Z,98371.77
2018-12-29T07:39:43.821Z,98370.79
2018-12-29T07:42:39.410Z,98366.05
2018-12-29T07:45:36.881Z,98375.61
2018-12-29T07:48:32.437Z,98380.08
2018-12-29T07:51:28.620Z,98384.18
2018-12-29T07:54:24.080Z,98384.18
2018-12-29T07:57:20.148Z,98389.64
2018-12-29T08:00:16.878Z,98386.28
2018-12-29T08:03:13.496Z,98392.62
2018-12-29T08:06:11.274Z,98398.07
2018-12-29T08:09:07.829Z,98406.53
2018-12-29T08:12:04.704Z,98411.01
2018-12-29T08:15:02.472Z,98412.23
2018-12-29T08:17:58.306Z,98410.84
2018-12-29T08:20:54.332Z,98415.94
2018-12-29T08:23:49.436Z,98411.22
2018-12-29T08:26:46.984Z,98408.70
2018-12-29T08:29:42.817Z,98410.17
2018-12-29T08:32:39.229Z,98403.69
2018-12-29T08:35:36.613Z,98412.16
2018-12-29T08:38:33.462Z,98419.85
2018-12-29T08:41:29.792Z,98409.41
2018-12-29T08:44:24.560Z,98413.40
2018-12-29T08:47:26.207Z,98419.52
2018-12-29T08:50:21.659Z,98422.88
2018-12-29T08:53:18.503Z,98422.88
2018-12-29T08:56:16.427Z,98420.73
2018-12-29T08:59:12.099Z,98435.53
2018-12-29T09:02:10.088Z,98440.14
2018-12-29T09:05:09.310Z,98439.49
2018-12-29T09:08:05.922Z,98438.25
2018-12-29T09:11:01.126Z,98444.45
2018-12-29T09:13:57.774Z,98439.91
2018-12-29T09:16:54.980Z,98441.16
2018-12-29T09:19:51.338Z,98438.89
2018-12-29T09:22:47.753Z,98438.37
2018-12-29T09:25:44.712Z,98451.28
2018-12-29T09:28:43.523Z,98452.27
2018-12-29T09:31:40.646Z,98454.77
2018-12-29T09:34:37.259Z,98449.05
2018-12-29T09:37:35.212Z,98439.04
2018-12-29T09:40:39.038Z,98428.05
2018-12-29T09:43:31.590Z,98427.78
2018-12-29T09:46:39.843Z,98427.01
2018-12-29T09:49:36.239Z,98432.95
2018-12-29T09:52:32.321Z,98433.94
2018-12-29T09:55:32.690Z,98426.70
2018-12-29T09:58:30.419Z,98426.41
2018-12-29T10:01:26.609Z,98415.66
2018-12-29T10:04:22.672Z,98419.61
2018-12-29T10:07:20.287Z,98418.53
2018-12-29T10:10:16.878Z,98407.52
2018-12-29T10:13:13.027Z,98408.03
2018-12-29T10:16:10.192Z,98422.01
2018-12-29T10:19:07.027Z,98406.27
2018-12-29T10:22:02.825Z,98399.03
2018-12-29T10:25:06.605Z,98399.03
2018-12-29T10:28:03.034Z,98411.72
2018-12-29T10:30:59.641Z,98425.39
2018-12-29T10:33:58.011Z,98437.91
2018-12-29T10:36:56.197Z,98444.10
2018-12-29T10:39:51.989Z,98441.55
2018-12-29T10:42:48.973Z,98446.28
2018-12-29T10:45:45.589Z,98447.01
2018-12-29T10:48:41.169Z,98448.10
2018-12-29T10:51:38.869Z,98437.23
2018-12-29T10:54:34.724Z,98442.23
2018-12-29T10:57:32.010Z,98442.49
2018-12-29T11:00:35.125Z,98439.31
2018-12-29T11:03:30.117Z,98436.05
2018-12-29T11:06:26.750Z,98435.32
2018-12-29T11:09:22.477Z,98433.97
2018-12-29T11:12:19.107Z,98429.64
2018-12-29T11:15:16.514Z,98436.36
2018-12-29T11:18:12.468Z,98433.44
2018-12-29T11:21:09.109Z,98425.53
2018-12-29T11:24:07.824Z,98425.75
2018-12-29T11:27:05.500Z,98419.77
2018-12-29T11:30:00.806Z,98414.83
2018-12-29T11:32:56.660Z,98411.09
2018-12-29T11:35:56.723Z,98409.58
2018-12-29T11:38:53.488Z,98413.59
2018-12-29T11:41:49.060Z,98413.84
2018-12-29T11:44:45.479Z,98412.84
2018-12-29T11:47:49.581Z,98408.81
2018-12-29T11:50:39.707Z,98409.79
2018-12-29T11:53:38.347Z,98394.81
2018-12-29T11:56:33.991Z,98400.05
2018-12-29T11:59:31.732Z,98390.02
2018-12-29T12:02:27.518Z,98388.97
2018-12-29T12:05:23.185Z,98397.92
2018-12-29T12:08:19.832Z,98392.55
2018-12-29T12:11:17.418Z,98394.52
2018-12-29T12:14:14.165Z,98394.46
2018-12-29T12:17:09.367Z,98388.33
2018-12-29T12:20:06.960Z,98388.16
2018-12-29T12:23:04.057Z,98390.73
2018-12-29T12:26:00.693Z,98377.67
2018-12-29T12:28:56.384Z,98385.95
2018-12-29T12:31:53.863Z,98382.47
2018-12-29T12:34:49.987Z,98379.77
2018-12-29T12:37:49.726Z,98380.14
2018-12-29T12:40:50.575Z,98383.98
2018-12-29T12:43:49.321Z,98380.74
2018-12-29T12:46:46.196Z,98372.48
2018-12-29T12:49:46.399Z,98370.48
2018-12-29T12:52:42.985Z,98360.44
2018-12-29T12:55:39.886Z,98368.34
2018-12-29T12:58:35.634Z,98366.55
2018-12-29T13:01:32.557Z,98368.57
2018-12-29T13:04:28.374Z,98374.31
2018-12-29T13:07:24.815Z,98361.82
2018-12-29T13:10:21.554Z,98363.67
2018-12-29T13:13:21.836Z,98363.00
2018-12-29T13:16:18.376Z,98359.25
2018-12-29T13:19:14.955Z,98353.98
2018-12-29T13:22:11.800Z,98355.74
2018-12-29T13:25:07.355Z,98354.97
2018-12-29T13:28:03.786Z,98354.33
2018-12-29T13:31:00.223Z,98357.20
2018-12-29T13:33:56.980Z,98350.67
2018-12-29T13:36:55.638Z,98356.92
2018-12-29T13:39:51.488Z,98348.78
2018-12-29T13:42:48.290Z,98348.78
2018-12-29T13:45:43.952Z,98345.88
2018-12-29T13:48:40.549Z,98338.99
2018-12-29T13:51:37.254Z,98345.71
2018-12-29T13:54:33.912Z,98339.56
2018-12-29T13:57:29.790Z,98337.30
2018-12-29T14:00:28.382Z,98334.13
2018-12-29T14:03:24.422Z,98335.97
2018-12-29T14:06:20.064Z,98334.92
2018-12-29T14:09:17.421Z,98337.14
2018-12-29T14:12:14.058Z,98328.12
2018-12-29T14:15:14.794Z,98328.59
2018-12-29T14:18:10.427Z,98331.09
2018-12-29T14:21:09.960Z,98322.86
2018-12-29T14:24:05.732Z,98320.36
2018-12-29T14:27:02.579Z,98315.36
2018-12-29T14:29:58.287Z,98314.11
2018-12-29T14:32:54.835Z,98312.08
2018-12-29T14:35:52.157Z,98309.58
2018-12-29T14:38:48.718Z,98311.34
2018-12-29T14:41:46.606Z,98303.33
2018-12-29T14:44:42.423Z,98302.59
2018-12-29T14:47:39.272Z,98297.59
2018-12-29T14:50:36.929Z,98290.64
2018-12-29T14:53:32.721Z,98288.06
2018-12-29T14:56:29.507Z,98291.34
2018-12-29T14:59:24.039Z,98290.09
2018-12-29T15:02:20.832Z,98287.88
2018-12-29T15:05:16.337Z,98288.75
2018-12-29T15:08:12.866Z,98283.62
2018-12-29T15:11:09.710Z,98287.88
2018-12-29T15:14:09.887Z,98287.88
2018-12-29T15:17:06.392Z,98284.03
2018-12-29T15:20:02.978Z,98294.39
2018-12-29T15:23:03.049Z,98285.92
2018-12-29T15:25:58.374Z,98283.93
2018-12-29T15:28:55.207Z,98285.92
2018-12-29T15:31:50.805Z,98285.92
2018-12-29T15:37:06.786Z,98293.14
2018-12-29T15:39:37.520Z,98300.91
2018-12-29T15:42:07.893Z,98297.06
2018-12-29T15:44:39.259Z,98287.25
2018-12-29T15:47:09.996Z,98287.25
2018-12-29T15:49:41.205Z,98293.42
2018-12-29T15:52:13.472Z,98291.70
2018-12-29T15:54:44.128Z,98290.45
2018-12-29T15:57:16.239Z,98287.17
2018-12-29T15:59:47.739Z,98281.70
2018-12-29T16:02:18.235Z,98275.92
2018-12-29T16:04:48.685Z,98267.55
2018-12-29T16:07:19.037Z,98265.47
2018-12-29T16:09:49.395Z,98260.94
2018-12-29T16:12:19.919Z,98271.80
2018-12-29T16:14:53.056Z,98271.70
2018-12-29T16:17:23.439Z,98277.95
2018-12-29T16:19:55.312Z,98276.70
2018-12-29T16:22:26.506Z,98274.20
2018-12-29T16:24:57.995Z,98274.20
2018-12-29T16:27:28.386Z,98266.71
2018-12-29T16:29:58.843Z,98270.46
2018-12-29T16:32:29.437Z,98267.45
2018-12-29T16:34:59.849Z,98260.74
2018-12-29T16:37:30.989Z,98257.36
2018-12-29T16:40:02.097Z,98251.49
2018-12-29T16:42:32.820Z,98245.25
2018-12-29T16:45:03.329Z,98236.03
2018-12-29T16:47:36.159Z,98226.51
2018-12-29T16:50:07.093Z,98214.80
2018-12-29T16:52:39.769Z,98203.05
2018-12-29T16:55:13.317Z,98200.08
2018-12-29T16:57:43.761Z,98190.46
2018-12-29T17:00:15.438Z,98192.39
2018-12-29T17:02:48.536Z,98194.89
2018-12-29T17:05:18.897Z,98195.91
2018-12-29T17:07:49.272Z,98194.20
2018-12-29T17:10:19.668Z,98179.77
2018-12-29T17:12:50.032Z,98176.80
2018-12-29T17:15:20.390Z,98182.81
2018-12-29T17:17:51.471Z,98173.61
2018-12-29T17:20:21.905Z,98180.13
2018-12-29T17:22:55.049Z,98180.91
2018-12-29T17:25:25.441Z,98191.64
2018-12-29T17:27:55.892Z,98181.19
2018-12-29T17:30:26.306Z,98179.73
2018-12-29T17:32:56.650Z,98181.27
2018-12-29T17:35:27.288Z,98186.26
2018-12-29T17:37:57.707Z,98181.17
2018-12-29T17:40:28.178Z,98197.55
2018-12-29T17:42:59.405Z,98195.63
2018-12-29T17:45:31.515Z,98206.36
2018-12-29T17:48:01.982Z,98215.38
2018-12-29T17:50:32.747Z,98207.14
2018-12-29T17:53:03.135Z,98197.90
2018-12-29T17:55:33.529Z,98202.15
2018-12-29T17:58:04.327Z,98207.89
2018-12-29T18:00:35.812Z,98208.86
2018-12-29T18:03:06.516Z,98211.26
2018-12-29T18:05:39.560Z,98177.92
2018-12-29T18:08:09.932Z,98163.72
2018-12-29T18:10:41.980Z,98164.50
2018-12-29T18:13:15.631Z,98167.74
2018-12-29T18:15:46.686Z,98174.26
2018-12-29T18:18:17.053Z,98176.28
2018-12-29T18:20:47.529Z,98161.58
2018-12-29T18:23:17.974Z,98153.12
2018-12-29T18:25:52.127Z,98162.13
2018-12-29T18:28:22.470Z,98150.20
2018-12-29T18:30:53.770Z,98148.02
2018-12-29T18:33:26.760Z,98147.51
2018-12-29T18:35:57.618Z,98144.03
2018-12-29T18:38:28.165Z,98144.54
2018-12-29T18:40:58.513Z,98142.52
2018-12-29T18:43:28.978Z,98145.02
2018-12-29T18:46:01.098Z,98142.52
2018-12-29T18:48:32.369Z,98139.05
2018-12-29T18:51:04.470Z,98126.47
2018-12-29T18:53:36.509Z,98108.90
2018-12-29T18:56:07.745Z,98121.19
2018-12-29T18:58:39.927Z,98106.08
2018-12-29T19:01:11.208Z,98095.03
2018-12-29T19:03:43.277Z,98103.30
2018-12-29T19:06:14.425Z,98127.47
2018-12-29T19:08:45.155Z,98113.47
2018-12-29T19:13:59.082Z,98091.09
2018-12-29T19:16:29.635Z,98094.54
2018-12-29T19:19:00.241Z,98086.18
2018-12-29T19:21:32.377Z,98079.44
2018-12-29T19:24:03.181Z,98080.59
2018-12-29T19:26:34.037Z,98081.73
2018-12-29T19:29:05.233Z,98085.02
2018-12-29T19:31:35.645Z,98075.03
2018-12-29T19:34:07.258Z,98043.44
2018-12-29T19:36:38.378Z,98040.10
2018-12-29T19:39:09.142Z,98031.65
2018-12-29T19:41:46.331Z,98023.66
2018-12-29T19:44:11.669Z,98019.45
2018-12-29T19:46:42.510Z,98014.83
2018-12-29T19:49:14.097Z,98009.75
2018-12-29T19:51:44.559Z,98017.42
2018-12-29T19:54:15.924Z,98013.02
2018-12-29T19:56:46.343Z,98025.69
2018-12-29T19:59:17.173Z,98036.45
2018-12-29T20:01:48.378Z,98046.70
2018-12-29T20:04:19.071Z,98052.94
2018-12-29T20:06:49.475Z,98047.67
2018-12-29T20:09:19.903Z,98065.13
2018-12-29T20:11:51.047Z,98061.39
2018-12-29T20:14:22.378Z,98068.38
2018-12-29T20:16:54.567Z,98074.88
2018-12-29T20:19:24.929Z,98070.39
2018-12-29T20:21:55.274Z,98082.87
2018-12-29T20:24:26.573Z,98078.34
2018-12-29T20:26:58.427Z,98086.34
2018-12-29T20:29:30.974Z,98084.78
2018-12-29T20:32:01.449Z,98077.30
2018-12-29T20:34:32.582Z,98082.02
2018-12-29T20:37:02.984Z,98060.06
2018-12-29T20:39:33.447Z,98082.71
2018-12-29T20:42:05.430Z,98071.95
2018-12-29T20:44:38.693Z,98077.17
2018-12-29T20:47:09.056Z,98070.66
2018-12-29T20:49:40.182Z,98088.32
2018-12-29T20:52:10.871Z,98094.28
2018-12-29T20:54:43.019Z,98072.30
2018-12-29T20:57:14.187Z,98062.81
2018-12-29T20:59:46.255Z,98048.58
2018-12-29T21:02:18.557Z,98042.84
2018-12-29T21:04:49.279Z,98037.77
2018-12-29T21:07:19.644Z,98033.61
2018-12-29T21:09:50.086Z,98017.39
2018-12-29T21:12:21.221Z,98017.39
2018-12-29T21:14:51.885Z,98025.38
2018-12-29T21:17:22.372Z,98015.86
2018-12-29T21:19:53.656Z,98002.92
2018-12-29T21:22:25.038Z,97993.41
2018-12-29T21:24:56.457Z,97996.41
2018-12-29T21:27:26.847Z,97987.95
2018-12-29T21:30:28.316Z,97987.16
2018-12-29T21:32:58.816Z,97973.16
2018-12-29T21:35:30.199Z,97958.19
2018-12-29T21:38:00.786Z,97952.41
2018-12-29T21:40:31.159Z,97933.42
2018-12-29T21:43:01.567Z,97923.71
2018-12-29T21:45:36.281Z,97907.90
2018-12-29T21:48:06.682Z,97910.77
2018-12-29T21:50:38.376Z,97918.44
2018-12-29T21:53:08.826Z,97907.02
2018-12-29T21:55:39.241Z,97900.13
2018-12-29T21:58:33.894Z,97897.44
2018-12-29T22:01:31.045Z,97886.01
2018-12-29T22:04:26.753Z,97881.89
2018-12-29T22:07:26.176Z,97884.20
2018-12-29T22:10:21.790Z,97882.95
2018-12-29T22:13:18.437Z,97889.66
2018-12-29T22:16:14.947Z,97888.91
2018-12-29T22:19:12.190Z,97883.13
2018-12-29T22:22:07.749Z,97884.09
2018-12-29T22:25:04.578Z,97880.81
2018-12-29T22:28:01.007Z,97869.11
2018-12-29T22:30:57.895Z,97870.83
2018-12-29T22:33:55.080Z,97867.48
2018-12-29T22:36:51.721Z,97861.63
2018-12-29T22:39:48.462Z,97865.74
2018-12-29T22:42:45.048Z,97874.10
2018-12-29T22:45:40.431Z,97874.89
2018-12-29T22:48:37.039Z,97873.64
2018-12-29T22:51:33.032Z,97872.27
2018-12-29T22:54:29.556Z,97867.19
2018-12-29T22:57:26.241Z,97864.69
2018-12-29T23:00:45.367Z,97852.98
2018-12-29T23:03:42.735Z,97860.95
2018-12-29T23:06:39.808Z,97857.98
2018-12-29T23:09:36.378Z,97852.98
2018-12-29T23:12:33.887Z,97849.24
2018-12-29T23:15:29.492Z,97848.00
2018-12-29T23:18:27.861Z,97847.03
2018-12-29T23:21:23.707Z,97837.42
2018-12-29T23:24:20.650Z,97828.31
2018-12-29T23:27:17.186Z,97828.78
2018-12-29T23:30:13.950Z,97820.33
2018-12-29T23:33:10.635Z,97823.78
2018-12-29T23:36:13.483Z,97821.98
2018-12-29T23:39:11.198Z,97816.12
2018-12-29T23:42:07.567Z,97813.63
2018-12-29T23:45:04.321Z,97795.47
2018-12-29T23:48:01.936Z,97795.47
2018-12-29T23:51:05.541Z,97796.14
2018-12-29T23:53:55.163Z,97796.14
2018-12-29T23:56:51.148Z,97787.88
2018-12-29T23:59:47.842Z,97789.62
